Little Rock, Illinois
Current Conditions -  °F | °C
As of 2:52 PM on Saturday 25 Oct 2014 (Local Time) from KARR Reporting Station
Clear Clear  
Wind Chill: 23°   Ceiling: Unl
Heat Index: 23°   Visibility: 10mi
Dew Point:   Wind: 15mph
Humidity: 22%   Direction: 280°W
Pressure: 29.93"   Gusts: NA
Location:  41.6798°N, 88.537°W
Report Text: KARR 251952Z 28013KT 10SM CLR 23/00 A2993 RMK AO2 SLP135 T02280000
Loading
Personal Weather Stations






























Interactive Weather Map
Tropical Storm Tracking
New forecast layout! Learn more

10-Day Weather Forecast

Advertisements
Track Severe Weather on mobile